Terminal Aerodrome Forecast
Issued by NWS Cleveland, OH

Home | Current Version | Previous Version | Graphics & Text | Print | Product List | Glossary On
Versions: 1 2 3 4 5 6 7 8 9 10 11 12 13 14 15 16 17 18 19 20 21 22 23
000
FTUS41 KCLE 151120
TAFCLE
TAF
KCLE 151120Z 1512/1618 15010KT P6SM OVC250
     FM152000 19015G25KT P6SM -SHRA OVC080
     FM160000 20015G25KT 3SM -SHRA BR OVC007
     FM160100 23015G25KT P6SM OVC007
     FM160300 24015G25KT P6SM OVC012
     FM160800 28015G25KT P6SM OVC020=

USA.gov is the U.S. government's official web portal to all federal, state and local government web resources and services.